This is the latest recevied weather packets stored in our database for station/object KC2TER. If no packets are shown the sender has not sent any weather packets the latest 1 day(s).
| Time | Temp. | Humidity | Pressure | Rain* | Wind** | Luminosity | Snow |
|---|---|---|---|---|---|---|---|
| 1836274593 | 19.44° C | 86% | 1017.7 hPa | 0 mm | 0.45 m/s, 107° | 0 W/m² | - |
| 1836274447 | 20° C | 79% | 1018 hPa | 0 mm | 1.34 m/s, 112° | 0 W/m² | - |
| 1836274292 | 18.89° C | 89% | 1017.7 hPa | 0 mm | 0.45 m/s, 101° | 0 W/m² | - |
| 1836274145 | 19.44° C | 82% | 1017.6 hPa | 0 mm | 0.89 m/s, 102° | 0 W/m² | - |
| 1836273991 | 18.89° C | 93% | 1017.6 hPa | 0 mm | 0.89 m/s, 121° | 0 W/m² | - |
| 1778054309 | 16.67° C | 83% | 1010.7 hPa | 0 mm | 0 m/s | 0 W/m² | - |
| 1778054006 | 17.22° C | 83% | 1010.7 hPa | 0 mm | 0.45 m/s, 70° | 0 W/m² | - |
| 1778053703 | 16.67° C | 83% | 1010.9 hPa | 0 mm | 0.45 m/s, 105° | 0 W/m² | - |
| 1778053400 | 17.22° C | 83% | 1011 hPa | 0 mm | 0.89 m/s, 98° | 0 W/m² | - |
| 1778053098 | 16.67° C | 83% | 1010.9 hPa | 0 mm | 0.45 m/s, 79° | 0 W/m² | - |
| 1778052795 | 17.22° C | 83% | 1011.2 hPa | 0 mm | 0.45 m/s, 84° | 0 W/m² | - |
| 1778052492 | 17.22° C | 83% | 1010.8 hPa | 0 mm | 1.34 m/s, 133° | 0 W/m² | - |
| 1778052190 | 17.22° C | 83% | 1010.9 hPa | 0 mm | 0 m/s | 0 W/m² | - |
| 1778051887 | 17.22° C | 83% | 1011 hPa | 0 mm | 0.89 m/s, 95° | 0 W/m² | - |
| 1778051585 | 17.22° C | 83% | 1010.9 hPa | 0 mm | 0.45 m/s, 103° | 0 W/m² | - |
| 1778051282 | 17.22° C | 82% | 1011 hPa | 0 mm | 0.45 m/s, 115° | 0 W/m² | - |
| 1778050979 | 17.22° C | 82% | 1011 hPa | 0 mm | 0 m/s | 0 W/m² | - |
| 1778050676 | 17.22° C | 82% | 1011 hPa | 0 mm | 0.45 m/s, 108° | 0 W/m² | - |
| 1778050374 | 17.22° C | 82% | 1011 hPa | 0 mm | 1.34 m/s, 128° | 0 W/m² | - |
| 1778050070 | 17.22° C | 82% | 1010.8 hPa | 0 mm | 2.24 m/s, 125° | 0 W/m² | - |
| 1778049765 | 17.22° C | 82% | 1010.8 hPa | 0 mm | 0 m/s | 0 W/m² | - |
| 1778049463 | 17.22° C | 82% | 1010.9 hPa | 0 mm | 1.34 m/s, 111° | 0 W/m² | - |
| 1778049161 | 17.22° C | 81% | 1011.1 hPa | 0 mm | 0.45 m/s, 111° | 0 W/m² | - |
| 1778048859 | 17.22° C | 82% | 1010.6 hPa | 0 mm | 1.79 m/s, 134° | 0 W/m² | - |
| 1778048556 | 17.22° C | 81% | 1010.6 hPa | 0 mm | 1.34 m/s, 104° | 0 W/m² | - |
* Rain latest hour (hover to see other rain measurements)
** Current wind speed in m/s (hover to see current wind gust speed)